Time;durP1;ratioP1;P1;durP2;ratioP2;P2;SDS_P1;SDS_P2;PMS_P1;PMS_P2;Temp;Humidity;BMP_temperature;BMP_pressure;BME280_temperature;BME280_humidity;BME280_pressure;Samples;Min_cycle;Max_cycle;Signal;HPM_P1;HPM_P2
2021/05/05 00:02:12;;;;;;;5.47;2.30;;;;;;;13.20;46.89;98849.81;4239257;33;35079;-93
2021/05/05 00:04:45;;;;;;;4.78;2.08;;;;;;;13.37;46.64;98849.22;4248350;33;34684;-87
2021/05/05 00:07:17;;;;;;;6.78;2.30;;;;;;;13.30;46.77;98840.31;4248891;33;34748;-94
2021/05/05 00:09:51;;;;;;;7.22;2.62;;;;;;;13.06;47.30;98837.44;4237433;33;33875;-88
2021/05/05 00:12:26;;;;;;;5.53;2.40;;;;;;;12.68;48.50;98841.16;4248944;33;34603;-96
2021/05/05 00:14:59;;;;;;;4.00;2.40;;;;;;;12.84;48.06;98837.88;4250580;33;34320;-88
2021/05/05 00:17:34;;;;;;;7.12;2.78;;;;;;;13.13;47.32;98827.34;4272997;33;34159;-93
2021/05/05 00:20:08;;;;;;;4.25;2.12;;;;;;;12.88;48.11;98824.69;4243585;33;34718;-94
2021/05/05 00:22:41;;;;;;;6.07;2.55;;;;;;;12.73;48.42;98819.63;4248600;33;33098;-87
2021/05/05 00:25:13;;;;;;;6.40;2.58;;;;;;;12.60;48.80;98817.03;4259704;33;33678;-94
2021/05/05 00:27:50;;;;;;;4.28;2.12;;;;;;;12.92;48.10;98803.38;4251406;33;33648;-96
2021/05/05 00:31:03;;;;;;;3.83;2.30;;;;;;;12.70;48.38;98809.25;4261774;33;34741;-95
2021/05/05 00:33:38;;;;;;;3.85;1.92;;;;;;;12.47;49.07;98804.44;4274519;33;31924;-94
2021/05/05 00:39:24;;;;;;;6.70;1.92;;;;;;;13.05;47.59;98797.78;4290132;33;33885;-94
2021/05/05 00:41:57;;;;;;;3.65;2.00;;;;;;;12.88;47.95;98789.44;4262717;33;35467;-87
2021/05/05 00:44:29;;;;;;;4.20;2.40;;;;;;;12.76;48.38;98794.78;4290661;33;33394;-88
2021/05/05 00:47:03;;;;;;;3.58;1.85;;;;;;;12.54;48.80;98792.50;4276078;33;36102;-88
2021/05/05 00:49:36;;;;;;;4.75;2.10;;;;;;;13.03;47.67;98791.78;4277648;33;33845;-87
2021/05/05 00:52:09;;;;;;;7.47;2.50;;;;;;;11.99;50.13;98797.75;4264667;33;34742;-94
2021/05/05 00:54:41;;;;;;;4.37;1.98;;;;;;;12.61;48.62;98788.91;4277431;33;33491;-92
2021/05/05 00:57:15;;;;;;;3.83;1.92;;;;;;;12.52;48.83;98789.16;4274519;33;34553;-87
2021/05/05 00:59:47;;;;;;;4.65;1.90;;;;;;;12.87;47.87;98785.91;4277498;33;34547;-87
2021/05/05 01:02:20;;;;;;;3.03;1.92;;;;;;;12.49;48.81;98784.19;4277143;33;33697;-94
2021/05/05 01:04:53;;;;;;;5.47;2.12;;;;;;;12.51;48.81;98783.97;4262617;33;33922;-94
2021/05/05 01:07:45;;;;;;;4.68;1.85;;;;;;;12.53;48.69;98769.16;4271232;33;35572;-87
2021/05/05 01:10:19;;;;;;;5.22;2.40;;;;;;;12.77;48.18;98774.75;4289225;33;33747;-87
2021/05/05 01:12:53;;;;;;;2.72;1.70;;;;;;;12.73;48.36;98773.53;4276674;33;34512;-94
2021/05/05 01:15:31;;;;;;;3.97;1.80;;;;;;;12.72;48.07;98766.44;4264185;33;34370;-87
2021/05/05 01:18:05;;;;;;;3.00;1.92;;;;;;;12.47;48.77;98772.75;4265388;33;33782;-94
2021/05/05 01:20:43;;;;;;;5.25;2.20;;;;;;;12.51;48.62;98775.84;4266086;33;33801;-87
2021/05/05 01:23:16;;;;;;;2.83;2.12;;;;;;;13.11;47.27;98768.94;4275837;33;33844;-89
2021/05/05 01:25:51;;;;;;;4.72;1.92;;;;;;;12.86;47.62;98767.16;4264584;33;35596;-94
2021/05/05 01:28:25;;;;;;;3.90;2.20;;;;;;;12.91;47.58;98769.19;4253279;33;35705;-93
2021/05/05 01:30:58;;;;;;;4.22;2.37;;;;;;;12.82;47.93;98771.38;4251814;33;34932;-87
2021/05/05 01:33:30;;;;;;;4.60;1.95;;;;;;;12.79;47.99;98764.50;4276746;33;34347;-87
2021/05/05 01:36:04;;;;;;;8.52;2.47;;;;;;;12.54;48.59;98759.97;4275620;33;34044;-95
2021/05/05 01:38:38;;;;;;;8.77;2.05;;;;;;;12.67;48.32;98759.00;4274512;33;33856;-87
2021/05/05 01:41:10;;;;;;;7.18;2.22;;;;;;;12.91;47.87;98759.16;4285277;33;34950;-87
2021/05/05 01:43:43;;;;;;;5.10;2.00;;;;;;;12.76;48.13;98756.81;4272033;33;34565;-88
2021/05/05 01:46:18;;;;;;;8.80;2.72;;;;;;;13.11;47.31;98755.38;4287573;33;33158;-88
2021/05/05 01:48:50;;;;;;;3.55;2.15;;;;;;;12.99;47.49;98747.16;4275142;33;33642;-88
2021/05/05 01:51:23;;;;;;;4.72;1.87;;;;;;;12.83;48.05;98746.75;4273724;33;34368;-88
2021/05/05 01:53:57;;;;;;;5.12;2.22;;;;;;;12.86;48.27;98746.28;4278253;33;34282;-87
2021/05/05 01:56:35;;;;;;;4.45;2.20;;;;;;;12.79;48.41;98752.84;4287707;33;32958;-87
2021/05/05 01:59:09;;;;;;;7.32;2.03;;;;;;;13.00;47.91;98751.56;4275538;33;35652;-87
2021/05/05 02:01:42;;;;;;;4.50;1.90;;;;;;;12.78;48.40;98752.00;4271259;33;34177;-87
2021/05/05 02:04:19;;;;;;;6.85;2.40;;;;;;;12.71;49.14;98753.97;4271013;33;33910;-88
2021/05/05 02:06:52;;;;;;;4.35;1.92;;;;;;;12.52;49.50;98755.84;4263726;33;34133;-86
2021/05/05 02:09:28;;;;;;;3.47;1.83;;;;;;;12.73;48.95;98753.75;4259565;33;35049;-87
2021/05/05 02:12:03;;;;;;;5.32;2.03;;;;;;;12.72;49.68;98744.75;4286228;33;33699;-88
2021/05/05 02:14:38;;;;;;;6.75;2.15;;;;;;;12.81;50.03;98746.13;4275825;33;34841;-87
2021/05/05 02:17:11;;;;;;;4.95;2.30;;;;;;;12.74;49.29;98734.53;4274955;33;33500;-88
2021/05/05 02:19:43;;;;;;;3.42;2.33;;;;;;;12.70;50.82;98736.03;4263701;33;34895;-87
2021/05/05 02:22:16;;;;;;;3.95;1.87;;;;;;;12.91;50.31;98726.63;4274065;33;35000;-88
2021/05/05 02:24:49;;;;;;;4.75;2.10;;;;;;;12.88;50.35;98738.75;4274315;33;34729;-88
2021/05/05 02:27:21;;;;;;;3.03;1.70;;;;;;;12.60;50.74;98725.72;4274616;33;34054;-87
2021/05/05 02:29:57;;;;;;;6.50;2.40;;;;;;;12.39;50.90;98731.56;4286946;33;33733;-87
2021/05/05 02:32:29;;;;;;;4.85;2.80;;;;;;;12.19;51.88;98736.13;4287324;33;33737;-87
2021/05/05 02:35:10;;;;;;;4.60;1.85;;;;;;;12.39;51.39;98732.38;4275596;33;34573;-87
2021/05/05 02:37:44;;;;;;;5.40;2.42;;;;;;;11.80;52.94;98732.66;4289209;33;34591;-86
2021/05/05 02:40:16;;;;;;;4.10;2.33;;;;;;;11.80;53.32;98732.66;4288501;33;33417;-87
2021/05/05 02:42:51;;;;;;;5.35;2.83;;;;;;;11.54;54.45;98731.00;4289395;33;34813;-86
2021/05/05 02:45:24;;;;;;;6.10;2.33;;;;;;;11.72;53.99;98729.41;4289090;33;33636;-87
2021/05/05 02:47:57;;;;;;;3.67;2.25;;;;;;;11.19;55.43;98725.16;4276463;33;33019;-87
2021/05/05 02:50:31;;;;;;;4.78;2.53;;;;;;;11.41;54.80;98712.13;4261134;33;34400;-88
2021/05/05 02:53:06;;;;;;;3.62;2.28;;;;;;;11.24;55.41;98711.81;4274596;33;33658;-88
2021/05/05 02:55:41;;;;;;;8.60;2.78;;;;;;;11.46;54.45;98717.72;4280291;33;34575;-87
2021/05/05 02:58:15;;;;;;;2.95;2.10;;;;;;;11.16;55.24;98714.78;4276846;33;33932;-88
2021/05/05 03:00:47;;;;;;;5.20;2.58;;;;;;;11.15;55.04;98723.94;4288021;33;34346;-87
2021/05/05 03:03:23;;;;;;;5.95;2.40;;;;;;;11.05;55.28;98725.22;4276254;33;34127;-87
2021/05/05 03:05:56;;;;;;;5.95;2.70;;;;;;;10.74;56.00;98726.78;4271453;33;34457;-87
2021/05/05 03:08:29;;;;;;;3.95;2.60;;;;;;;10.62;56.02;98730.38;4277779;33;34030;-87
2021/05/05 03:11:02;;;;;;;6.28;2.65;;;;;;;10.62;56.23;98725.81;4290388;33;33915;-87
2021/05/05 03:13:34;;;;;;;4.43;2.40;;;;;;;10.50;56.32;98728.31;4291559;33;34627;-87
2021/05/05 03:16:07;;;;;;;4.55;2.47;;;;;;;10.28;57.07;98729.59;4302930;33;33791;-87
2021/05/05 03:18:51;;;;;;;3.70;2.50;;;;;;;9.99;57.68;98732.53;4286030;33;33049;-87
2021/05/05 03:21:27;;;;;;;3.22;2.55;;;;;;;10.20;56.97;98728.75;4254765;33;34052;-87
2021/05/05 03:24:08;;;;;;;6.80;2.78;;;;;;;10.00;57.63;98733.34;4265904;33;33783;-88
2021/05/05 03:26:41;;;;;;;6.68;2.85;;;;;;;9.75;58.44;98730.47;4275903;33;33273;-86
2021/05/05 03:29:13;;;;;;;6.03;2.83;;;;;;;9.83;58.48;98728.34;4273530;33;34115;-87
2021/05/05 03:31:46;;;;;;;4.15;2.28;;;;;;;9.79;58.80;98732.53;4287502;33;34626;-87
2021/05/05 03:34:18;;;;;;;8.85;2.80;;;;;;;9.94;57.69;98734.19;4288812;33;33575;-87
2021/05/05 03:36:50;;;;;;;5.72;3.03;;;;;;;9.76;58.47;98732.09;4274931;33;33299;-87
2021/05/05 03:39:23;;;;;;;7.43;3.37;;;;;;;9.72;58.56;98732.50;4265220;33;33155;-88
2021/05/05 03:41:58;;;;;;;4.90;2.53;;;;;;;10.06;57.82;98727.13;4265229;33;33559;-87
2021/05/05 03:44:32;;;;;;;5.18;2.75;;;;;;;9.94;57.92;98721.53;4275451;33;34474;-87
2021/05/05 03:47:08;;;;;;;4.03;2.37;;;;;;;9.87;58.09;98728.78;4289390;33;32915;-88
2021/05/05 03:49:40;;;;;;;6.05;2.40;;;;;;;9.89;57.93;98715.91;4290929;33;32854;-88
2021/05/05 03:52:15;;;;;;;9.73;2.75;;;;;;;10.03;57.69;98720.28;4278041;33;34309;-88
2021/05/05 03:54:54;;;;;;;4.65;2.50;;;;;;;10.08;57.69;98720.47;4293722;33;34297;-88
2021/05/05 03:57:29;;;;;;;8.52;2.62;;;;;;;10.15;57.84;98719.63;4276564;33;33443;-87
2021/05/05 04:00:04;;;;;;;4.30;2.30;;;;;;;10.05;58.13;98711.97;4276195;33;33874;-88
2021/05/05 04:02:40;;;;;;;6.57;4.20;;;;;;;10.00;58.86;98714.44;4262084;33;35213;-88
2021/05/05 04:05:22;;;;;;;5.25;2.60;;;;;;;9.96;59.13;98713.22;4266056;33;34102;-89
2021/05/05 04:07:57;;;;;;;5.15;2.40;;;;;;;10.17;58.55;98706.75;4276455;33;33295;-87
2021/05/05 04:10:30;;;;;;;4.80;2.35;;;;;;;10.00;59.27;98711.75;4266893;33;35196;-87
2021/05/05 04:13:05;;;;;;;7.70;2.90;;;;;;;10.14;58.78;98702.59;4290527;33;33470;-87
2021/05/05 04:15:51;;;;;;;6.70;3.50;;;;;;;10.30;58.42;98695.94;4280368;33;34780;-87
2021/05/05 04:18:36;;;;;;;11.95;3.17;;;;;;;10.02;59.27;98683.50;4275468;33;32841;-87
2021/05/05 04:21:23;;;;;;;11.35;3.33;;;;;;;10.35;58.28;98695.34;4288361;33;34370;-87
2021/05/05 04:24:09;;;;;;;5.93;2.90;;;;;;;10.01;59.57;98695.34;4264914;33;34157;-89
2021/05/05 04:26:41;;;;;;;4.78;2.85;;;;;;;9.98;59.98;98692.25;4263819;33;34214;-88
2021/05/05 04:29:14;;;;;;;8.45;3.17;;;;;;;9.85;60.88;98690.37;4287849;33;34278;-88
2021/05/05 04:31:48;;;;;;;4.43;2.67;;;;;;;10.03;60.27;98692.44;4275194;33;33384;-87
2021/05/05 04:34:27;;;;;;;5.22;2.87;;;;;;;10.24;60.08;98685.97;4274807;33;33660;-86
2021/05/05 04:37:03;;;;;;;5.75;3.00;;;;;;;10.42;59.53;98683.47;4288892;33;34371;-88
2021/05/05 04:39:38;;;;;;;7.30;3.00;;;;;;;10.65;58.88;98681.31;4290515;33;33748;-87
2021/05/05 04:42:11;;;;;;;8.52;2.60;;;;;;;10.64;58.77;98685.88;4272824;33;34230;-88
2021/05/05 04:44:43;;;;;;;5.82;2.78;;;;;;;10.79;58.76;98685.59;4273746;33;33713;-87
2021/05/05 04:47:15;;;;;;;4.78;2.80;;;;;;;10.67;59.53;98690.03;4300750;33;33811;-86
2021/05/05 04:49:55;;;;;;;4.82;2.40;;;;;;;10.67;59.29;98685.44;4295429;33;34735;-88
2021/05/05 04:52:29;;;;;;;6.12;3.83;;;;;;;10.09;61.23;98699.72;4261931;33;35285;-88
2021/05/05 04:55:06;;;;;;;8.00;3.30;;;;;;;10.53;60.03;98698.19;4263814;33;35610;-87
2021/05/05 04:57:38;;;;;;;5.07;2.62;;;;;;;10.97;59.37;98697.59;4276772;33;34260;-94
2021/05/05 05:00:11;;;;;;;8.80;3.37;;;;;;;11.15;59.26;98705.00;4261715;33;35887;-95
2021/05/05 05:02:57;;;;;;;7.07;3.45;;;;;;;11.00;59.87;98710.69;4261007;33;35363;-95
2021/05/05 05:05:29;;;;;;;5.32;3.20;;;;;;;11.22;59.78;98708.50;4275876;33;33600;-94
2021/05/05 05:08:03;;;;;;;9.27;4.37;;;;;;;11.53;59.08;98709.56;4279076;33;33746;-96
2021/05/05 05:10:39;;;;;;;10.35;4.18;;;;;;;11.55;59.64;98712.87;4267197;33;34914;-86
2021/05/05 05:13:11;;;;;;;10.27;4.35;;;;;;;11.35;60.26;98710.28;4288219;33;33252;-86
2021/05/05 05:15:46;;;;;;;10.77;5.15;;;;;;;12.06;58.67;98701.03;4288760;33;33406;-96
2021/05/05 05:18:20;;;;;;;10.55;4.68;;;;;;;12.25;57.88;98696.47;4267122;33;33881;-96
2021/05/05 05:20:52;;;;;;;9.70;3.95;;;;;;;12.09;58.13;98697.87;4276300;33;33768;-86
2021/05/05 05:23:24;;;;;;;10.35;4.15;;;;;;;12.24;57.65;98694.81;4284018;33;32877;-96
2021/05/05 05:25:57;;;;;;;10.98;4.45;;;;;;;12.35;57.62;98687.84;4271745;33;35244;-95
2021/05/05 05:28:30;;;;;;;10.02;3.58;;;;;;;12.75;57.00;98700.13;4264019;33;34744;-95
2021/05/05 05:31:03;;;;;;;9.90;4.00;;;;;;;12.96;56.48;98696.91;4286813;33;34701;-93
2021/05/05 05:33:35;;;;;;;8.18;3.53;;;;;;;13.00;55.11;98702.72;4283762;33;162147;-96
2021/05/05 05:36:08;;;;;;;6.32;2.95;;;;;;;12.70;55.87;98708.94;4275418;33;32840;-84
2021/05/05 05:38:41;;;;;;;5.00;3.10;;;;;;;12.66;56.90;98711.25;4298023;33;33458;-96
2021/05/05 05:41:14;;;;;;;6.50;3.35;;;;;;;12.79;56.25;98702.16;4274135;33;34589;-92
2021/05/05 05:43:47;;;;;;;11.57;3.20;;;;;;;13.08;55.60;98702.41;4287567;33;34070;-96
2021/05/05 05:46:20;;;;;;;10.07;3.40;;;;;;;13.58;54.40;98704.84;4274338;33;33132;-96
2021/05/05 05:48:54;;;;;;;13.00;3.12;;;;;;;13.58;54.19;98694.00;4284814;33;35082;-90
2021/05/05 05:51:26;;;;;;;10.23;2.92;;;;;;;13.45;54.51;98694.19;4285078;33;34585;-96
2021/05/05 05:54:00;;;;;;;10.65;3.67;;;;;;;13.26;55.10;98698.81;4282242;33;36668;-84
2021/05/05 05:56:32;;;;;;;7.95;3.20;;;;;;;13.90;54.15;98688.25;4286332;33;34367;-85
2021/05/05 05:59:05;;;;;;;16.10;3.65;;;;;;;13.80;54.66;98701.59;4299082;33;33714;-96
2021/05/05 06:01:38;;;;;;;15.93;4.12;;;;;;;13.95;54.40;98709.28;4263895;33;34387;-84
2021/05/05 06:04:10;;;;;;;7.97;3.50;;;;;;;14.20;53.07;98706.34;4291416;33;34124;-95
2021/05/05 06:06:43;;;;;;;4.82;2.62;;;;;;;14.23;53.45;98713.22;4286801;33;35627;-93
2021/05/05 06:09:17;;;;;;;7.62;3.12;;;;;;;14.00;54.76;98706.69;4285610;33;36881;-95
2021/05/05 06:11:49;;;;;;;7.50;3.35;;;;;;;14.39;54.09;98700.81;4296867;33;33994;-95
2021/05/05 06:14:29;;;;;;;6.32;3.15;;;;;;;14.40;53.96;98700.56;4267316;33;34530;-95
2021/05/05 06:17:04;;;;;;;8.57;2.95;;;;;;;14.12;54.19;98701.28;4274845;33;33655;-95
2021/05/05 06:19:38;;;;;;;6.60;3.53;;;;;;;14.20;54.53;98698.19;4273667;33;37053;-85
2021/05/05 06:22:10;;;;;;;9.57;3.75;;;;;;;14.25;54.74;98692.91;4285864;33;33653;-95
2021/05/05 06:24:45;;;;;;;4.60;3.20;;;;;;;14.46;54.08;98688.75;4273404;33;34010;-85
2021/05/05 06:27:18;;;;;;;8.80;3.75;;;;;;;14.51;53.60;98681.75;4273082;33;33891;-94
2021/05/05 06:29:52;;;;;;;7.00;3.00;;;;;;;14.68;53.97;98677.25;4262706;33;35229;-96
2021/05/05 06:32:24;;;;;;;7.37;3.10;;;;;;;15.08;53.03;98672.88;4261135;33;35013;-86
2021/05/05 06:35:16;;;;;;;8.75;3.10;;;;;;;14.82;53.89;98673.19;4241036;33;33823;-88
2021/05/05 06:37:49;;;;;;;8.20;3.40;;;;;;;14.86;53.40;98665.38;4230821;33;34232;-87
2021/05/05 06:40:23;;;;;;;6.55;2.45;;;;;;;15.02;53.27;98663.78;4231728;33;34620;-86
2021/05/05 06:42:55;;;;;;;6.82;3.50;;;;;;;14.95;53.75;98658.47;4240795;33;33381;-93
2021/05/05 06:45:28;;;;;;;7.60;3.95;;;;;;;15.17;53.13;98655.09;4230095;33;33054;-87
2021/05/05 06:48:23;;;;;;;5.50;3.00;;;;;;;15.49;53.12;98660.84;4233823;33;34284;-96
2021/05/05 06:51:21;;;;;;;5.37;2.60;;;;;;;14.79;54.15;98660.09;4207695;33;32788;-96
2021/05/05 06:54:17;;;;;;;5.25;3.78;;;;;;;15.17;53.69;98665.97;4212112;33;34579;-96
2021/05/05 06:57:07;;;;;;;6.37;2.97;;;;;;;15.31;53.14;98651.00;4248196;33;33376;-87
2021/05/05 06:59:39;;;;;;;7.75;2.95;;;;;;;15.66;52.30;98654.59;4256926;33;33516;-87
2021/05/05 07:02:12;;;;;;;4.78;3.35;;;;;;;15.86;51.91;98651.37;4250195;33;34954;-96
2021/05/05 07:04:46;;;;;;;5.85;3.12;;;;;;;15.66;52.22;98647.22;4255728;33;35739;-96
2021/05/05 07:07:37;;;;;;;6.22;3.12;;;;;;;15.94;52.25;98650.94;4255980;33;34112;-91
2021/05/05 07:10:11;;;;;;;5.12;3.00;;;;;;;15.98;51.92;98643.94;4268296;33;34288;-94
2021/05/05 07:13:01;;;;;;;6.45;2.70;;;;;;;16.61;51.33;98662.81;4224116;33;32917;-96
2021/05/05 07:15:34;;;;;;;9.55;3.00;;;;;;;16.12;50.96;98660.75;4240735;33;34655;-96
2021/05/05 07:18:31;;;;;;;6.05;3.28;;;;;;;16.14;50.36;98666.81;4231127;33;34244;-95
2021/05/05 07:21:04;;;;;;;7.82;3.00;;;;;;;16.42;50.58;98657.66;4221494;33;34376;-93
2021/05/05 07:23:43;;;;;;;11.63;3.37;;;;;;;16.33;51.80;98651.00;4236787;33;33662;-89
2021/05/05 07:26:19;;;;;;;5.75;3.08;;;;;;;16.71;50.44;98638.38;4245792;33;34854;-96
2021/05/05 07:29:05;;;;;;;11.32;3.25;;;;;;;16.96;50.12;98637.06;4224988;33;33007;-89
2021/05/05 07:35:24;;;;;;;5.85;3.53;;;;;;;16.47;50.30;98646.00;4248844;33;33833;-89
2021/05/05 07:49:30;;;;;;;7.43;4.10;;;;;;;16.06;51.58;98640.81;4264244;33;33981;-94
2021/05/05 07:51:57;;;;;;;6.37;3.25;;;;;;;15.41;54.23;98649.53;4286784;33;32615;-93
2021/05/05 07:54:28;;;;;;;8.10;3.08;;;;;;;15.40;54.24;98636.97;4263561;33;33771;-95
2021/05/05 08:00:50;;;;;;;12.30;3.00;;;;;;;16.26;52.35;98639.44;4566942;28;20105;-96
2021/05/05 08:07:53;;;;;;;13.43;3.08;;;;;;;16.90;50.69;98636.19;4577831;28;20077;-96
2021/05/05 08:17:42;;;;;;;7.07;3.08;;;;;;;17.99;48.42;98618.88;4262972;33;20106;-96
2021/05/05 08:20:37;;;;;;;10.90;3.50;;;;;;;18.22;46.73;98614.06;4179465;34;33231;-93
2021/05/05 08:27:06;;;;;;;6.50;2.80;;;;;;;17.25;48.41;98599.41;4390685;28;20782;-96
2021/05/05 08:33:16;;;;;;;10.70;3.00;;;;;;;18.39;47.89;98587.38;4471906;28;20117;-96
2021/05/05 08:36:28;;;;;;;5.68;2.65;;;;;;;19.00;46.93;98580.50;4325256;28;20106;-93
2021/05/05 08:43:07;;;;;;;4.90;2.45;;;;;;;18.43;46.60;98579.44;4579760;28;31544;-96
2021/05/05 08:45:41;;;;;;;6.95;3.30;;;;;;;19.14;45.03;98570.63;4365245;28;33150;-95
2021/05/05 08:49:15;;;;;;;7.25;3.15;;;;;;;18.80;45.60;98562.91;4179362;34;32707;-94
2021/05/05 08:52:07;;;;;;;5.72;3.33;;;;;;;18.48;46.97;98569.34;4189718;34;33108;-96
2021/05/05 08:55:09;;;;;;;5.22;2.67;;;;;;;18.26;46.49;98579.66;4323479;28;32348;-95
2021/05/05 09:02:14;;;;;;;12.50;2.30;;;;;;;19.41;43.68;98569.56;4251190;28;20226;-94
2021/05/05 09:05:07;;;;;;;3.37;2.17;;;;;;;18.76;46.37;98569.16;4162986;34;32497;-94
2021/05/05 09:08:02;;;;;;;5.65;2.50;;;;;;;18.81;44.52;98572.72;4166318;34;32595;-96
2021/05/05 09:11:07;;;;;;;5.25;2.92;;;;;;;19.51;43.97;98558.59;4176437;34;33348;-95
2021/05/05 09:13:57;;;;;;;7.82;1.90;;;;;;;19.72;40.98;98569.56;4172605;34;34712;-94
2021/05/05 09:16:50;;;;;;;4.97;1.95;;;;;;;18.42;44.59;98548.53;4190853;34;32560;-94
2021/05/05 09:20:06;;;;;;;3.62;2.08;;;;;;;19.94;43.28;98541.84;4200935;34;36360;-96
2021/05/05 09:23:03;;;;;;;2.37;1.80;;;;;;;18.98;43.17;98544.31;4215449;33;32782;-95
2021/05/05 09:25:52;;;;;;;2.87;1.83;;;;;;;19.91;42.47;98536.91;4205776;33;35149;-96
2021/05/05 09:28:54;;;;;;;7.87;1.83;;;;;;;19.41;43.26;98548.44;4195309;34;34056;-96
2021/05/05 09:31:47;;;;;;;7.25;2.10;;;;;;;19.83;42.08;98532.81;4206612;34;34288;-94
2021/05/05 09:35:15;;;;;;;6.28;1.98;;;;;;;19.67;42.37;98529.28;4198816;33;34227;-95
2021/05/05 09:38:36;;;;;;;5.28;2.03;;;;;;;20.88;39.81;98535.69;4207946;33;34113;-96
2021/05/05 09:41:46;;;;;;;8.88;1.83;;;;;;;20.19;40.29;98532.72;4188304;34;33518;-94
2021/05/05 09:44:58;;;;;;;5.85;1.90;;;;;;;19.87;42.05;98517.47;4211238;34;32676;-95
2021/05/05 09:48:10;;;;;;;6.28;2.05;;;;;;;20.58;40.66;98515.53;4210572;33;33395;-95
2021/05/05 09:51:02;;;;;;;3.00;1.75;;;;;;;20.59;40.73;98510.88;4201062;34;33777;-96
2021/05/05 09:53:46;;;;;;;3.55;2.05;;;;;;;21.66;38.02;98506.50;4211790;33;34778;-94
2021/05/05 09:57:00;;;;;;;6.35;2.00;;;;;;;20.51;40.67;98516.94;4208499;33;32091;-96
2021/05/05 10:00:12;;;;;;;8.70;1.85;;;;;;;19.68;42.10;98502.69;4264419;28;35620;-96
2021/05/05 10:03:48;;;;;;;4.03;1.62;;;;;;;20.99;39.59;98498.00;4201271;34;33992;-96
2021/05/05 10:06:31;;;;;;;9.82;2.12;;;;;;;20.92;39.19;98481.84;4197713;33;33074;-95
2021/05/05 10:10:10;;;;;;;4.07;1.87;;;;;;;22.51;37.33;98475.81;4222378;33;20519;-96
2021/05/05 10:12:53;;;;;;;5.70;2.40;;;;;;;21.81;39.55;98490.94;4242493;33;33371;-95
2021/05/05 10:15:55;;;;;;;6.78;2.25;;;;;;;19.67;41.43;98490.91;4217613;33;20848;-96
2021/05/05 10:19:30;;;;;;;2.85;1.40;;;;;;;19.72;40.96;98492.81;4214571;28;35095;-94
2021/05/05 10:30:22;;;;;;;5.28;1.58;;;;;;;21.37;38.92;98480.94;4258411;28;32884;-95
2021/05/05 10:33:26;;;;;;;4.28;1.75;;;;;;;21.67;39.24;98472.38;4187656;28;33486;31
2021/05/05 10:36:35;;;;;;;11.07;1.75;;;;;;;22.44;37.06;98475.34;4188937;34;32950;-96
2021/05/05 10:39:52;;;;;;;5.03;2.62;;;;;;;22.42;36.18;98472.09;4185014;34;34241;-96
2021/05/05 10:42:36;;;;;;;4.53;1.55;;;;;;;23.51;33.67;98475.59;4184915;34;32856;-96
2021/05/05 10:45:40;;;;;;;5.00;1.58;;;;;;;23.89;33.05;98464.44;4169146;34;34042;-96
2021/05/05 10:49:26;;;;;;;7.20;1.92;;;;;;;24.56;32.48;98467.72;4194704;34;34286;-96
2021/05/05 10:52:03;;;;;;;5.68;1.58;;;;;;;23.14;34.34;98465.50;4208604;33;35338;-96
2021/05/05 10:54:53;;;;;;;6.47;1.73;;;;;;;22.49;35.08;98472.53;4205922;33;34836;-94
2021/05/05 10:57:30;;;;;;;2.08;1.48;;;;;;;22.62;35.87;98446.19;4205045;33;34150;-95
2021/05/05 11:00:13;;;;;;;3.60;1.60;;;;;;;23.20;35.53;98447.78;4197933;33;34273;-96
2021/05/05 11:03:03;;;;;;;7.62;1.98;;;;;;;23.94;34.58;98452.50;4229821;33;35541;-93
2021/05/05 11:05:38;;;;;;;3.75;2.05;;;;;;;24.93;32.75;98452.78;4219140;33;34524;-96
2021/05/05 11:08:27;;;;;;;5.30;1.67;;;;;;;24.60;32.99;98446.69;4216569;33;35687;-94
2021/05/05 11:10:59;;;;;;;5.37;2.00;;;;;;;25.43;32.48;98443.53;4236485;33;34083;-94
2021/05/05 11:13:45;;;;;;;8.43;1.60;;;;;;;24.91;30.88;98437.66;4250676;33;33424;-96
2021/05/05 11:16:20;;;;;;;7.22;1.70;;;;;;;25.10;31.20;98443.78;4224779;33;34803;-96
2021/05/05 11:18:56;;;;;;;5.50;1.80;;;;;;;24.97;30.72;98431.69;4225615;33;34730;-95
2021/05/05 11:21:40;;;;;;;3.65;1.87;;;;;;;25.28;30.04;98443.91;4233814;33;33481;-96
2021/05/05 11:24:44;;;;;;;;;;;;;;;24.48;31.28;98431.44;4225957;33;35288;-96
2021/05/05 11:27:57;;;;;;;6.50;1.98;;;;;;;24.16;31.85;98421.38;4238711;33;34154;-88
2021/05/05 11:30:40;;;;;;;7.45;1.75;;;;;;;24.74;31.17;98425.34;4242013;33;34622;-89
2021/05/05 11:33:19;;;;;;;7.10;1.62;;;;;;;24.48;31.20;98425.91;4266965;33;33013;-86
2021/05/05 11:36:16;;;;;;;5.82;2.20;;;;;;;24.28;31.94;98420.84;4255447;33;33489;-96
2021/05/05 11:39:04;;;;;;;4.55;1.90;;;;;;;24.68;31.37;98437.66;4259297;33;33759;-96
2021/05/05 11:42:37;;;;;;;7.57;2.00;;;;;;;23.95;31.70;98418.25;4213187;33;33228;-95
2021/05/05 11:45:20;;;;;;;3.53;1.62;;;;;;;23.87;31.05;98427.25;4221951;33;32929;-86
2021/05/05 11:48:36;;;;;;;4.95;1.90;;;;;;;24.30;31.32;98404.81;4214509;34;32806;-93
2021/05/05 11:51:20;;;;;;;6.10;1.55;;;;;;;24.45;30.80;98426.53;4200288;34;34511;-87
2021/05/05 11:53:53;;;;;;;3.65;1.45;;;;;;;25.15;30.50;98407.75;4215404;33;34780;-95
2021/05/05 11:56:26;;;;;;;5.43;2.00;;;;;;;25.89;29.60;98409.06;4214776;33;33258;-88
2021/05/05 11:59:02;;;;;;;5.25;2.08;;;;;;;24.96;30.59;98398.84;4215708;34;33629;-95
2021/05/05 12:01:41;;;;;;;5.80;1.62;;;;;;;25.25;30.63;98392.03;4204412;34;32866;-96
2021/05/05 12:04:22;;;;;;;4.30;1.70;;;;;;;25.68;28.79;98399.72;4215728;34;36070;-88
2021/05/05 12:07:01;;;;;;;3.72;1.55;;;;;;;26.66;28.91;98377.41;4190113;34;35867;-87
2021/05/05 12:09:59;;;;;;;3.65;1.62;;;;;;;26.45;27.05;98393.87;4214373;34;34137;-95
2021/05/05 12:13:08;;;;;;;3.75;1.52;;;;;;;25.83;28.27;98377.16;4211952;33;33005;-88
2021/05/05 12:16:26;;;;;;;3.65;1.55;;;;;;;27.10;26.32;98376.22;4202647;34;33791;-87
2021/05/05 12:18:48;;;;;;;9.43;1.67;;;;;;;26.44;28.02;98376.44;4191755;34;33687;-96
2021/05/05 12:21:25;;;;;;;5.03;2.20;;;;;;;26.25;28.47;98360.97;4202964;34;33673;-96
2021/05/05 12:24:02;;;;;;;5.28;1.55;;;;;;;26.73;27.21;98363.91;4209273;34;33787;-95
2021/05/05 12:26:35;;;;;;;6.72;1.85;;;;;;;27.23;26.37;98368.03;4200457;34;33434;-88
2021/05/05 12:29:08;;;;;;;6.68;1.87;;;;;;;26.92;26.40;98375.44;4217378;34;32264;-87
2021/05/05 12:31:45;;;;;;;3.05;1.48;;;;;;;25.80;28.03;98361.19;4209263;34;34646;-94
2021/05/05 12:34:28;;;;;;;6.10;1.92;;;;;;;24.44;29.29;98375.19;4205748;34;33638;-95
2021/05/05 12:37:07;;;;;;;5.32;1.80;;;;;;;24.49;30.65;98374.25;4220864;33;33111;-88
2021/05/05 12:43:13;;;;;;;7.82;1.90;;;;;;;24.45;30.43;98371.31;4215957;34;34826;-89
2021/05/05 12:45:51;;;;;;;7.72;1.60;;;;;;;24.65;31.08;98375.56;4214436;33;33871;-88
2021/05/05 12:48:29;;;;;;;5.43;1.62;;;;;;;24.80;30.69;98379.88;4242276;33;33557;-94
2021/05/05 12:51:22;;;;;;;5.05;1.50;;;;;;;25.37;28.77;98378.44;4230648;33;33300;-95
2021/05/05 12:54:06;;;;;;;7.45;1.58;;;;;;;25.57;28.62;98376.25;4244182;33;32764;-94
2021/05/05 12:56:49;;;;;;;5.68;1.67;;;;;;;25.66;27.54;98382.63;4228814;33;34801;-89
2021/05/05 12:59:42;;;;;;;8.02;1.92;;;;;;;25.73;26.73;98369.97;4218724;33;34055;-89
2021/05/05 13:03:12;;;;;;;5.05;1.75;;;;;;;25.68;27.75;98380.38;4222444;33;33026;-92
2021/05/05 13:06:04;;;;;;;6.05;1.52;;;;;;;24.85;29.82;98354.91;4184153;34;34156;-92
2021/05/05 13:09:21;;;;;;;6.00;2.08;;;;;;;25.83;28.19;98366.09;4226956;28;34135;-91
2021/05/05 13:12:39;;;;;;;4.53;1.75;;;;;;;24.90;29.57;98364.22;4225278;33;34431;-96
2021/05/05 13:31:23;;;;;;;2.50;1.12;;;;;;;24.10;29.96;98343.44;4234903;33;20157;-95
2021/05/05 13:34:23;;;;;;;3.78;1.50;;;;;;;24.65;29.03;98341.59;4195909;28;33547;-96
2021/05/05 13:37:16;;;;;;;5.47;1.73;;;;;;;23.73;30.23;98347.25;4187354;34;33996;-91
2021/05/05 13:39:51;;;;;;;5.43;1.40;;;;;;;23.65;30.59;98325.91;4177270;34;33989;-93
2021/05/05 13:42:30;;;;;;;2.78;1.27;;;;;;;23.73;30.31;98334.28;4176676;34;34208;-96
2021/05/05 13:45:20;;;;;;;6.22;1.60;;;;;;;24.31;30.16;98327.22;4168429;34;33625;-94
2021/05/05 13:51:14;;;;;;;3.45;1.40;;;;;;;25.32;28.26;98320.53;4199376;34;33498;-93
2021/05/05 13:54:42;;;;;;;4.10;1.30;;;;;;;25.27;26.97;98334.47;4222754;33;20169;-95
2021/05/05 13:57:16;;;;;;;3.10;1.98;;;;;;;23.99;28.57;98338.44;4189539;34;32889;-95
2021/05/05 13:59:49;;;;;;;3.62;1.73;;;;;;;24.24;28.62;98326.03;4205266;34;33815;-86
2021/05/05 14:02:36;;;;;;;8.55;1.52;;;;;;;24.29;28.86;98334.16;4228082;33;34027;-96
2021/05/05 14:05:59;;;;;;;3.43;1.30;;;;;;;23.43;30.32;98335.72;4373412;28;33668;-94